createdAt,value
2023-05-06T05:23:25.174Z,81.91
2023-05-06T05:25:53.230Z,81.50
2023-05-06T05:28:20.693Z,81.05
2023-05-06T05:30:48.214Z,81.04
2023-05-06T05:33:15.849Z,80.80
2023-05-06T05:35:43.425Z,80.43
2023-05-06T05:38:13.121Z,80.33
2023-05-06T05:40:40.842Z,79.91
2023-05-06T05:46:04.888Z,79.78
2023-05-06T05:48:32.905Z,80.07
2023-05-06T05:55:16.345Z,79.34
2023-05-06T06:03:00.227Z,79.88
2023-05-06T06:05:27.959Z,79.72
2023-05-06T06:07:55.527Z,79.52
2023-05-06T06:10:23.034Z,79.27
2023-05-06T06:12:50.537Z,78.89
2023-05-06T06:15:18.102Z,78.78
2023-05-06T06:17:45.714Z,78.67
2023-05-06T06:20:14.274Z,79.24
2023-05-06T06:22:41.868Z,78.52
2023-05-06T06:25:10.378Z,78.19
2023-05-06T06:27:38.530Z,77.92
2023-05-06T06:30:07.782Z,77.89
2023-05-06T06:32:35.488Z,77.02
2023-05-06T06:35:03.044Z,78.61
2023-05-06T06:37:30.580Z,77.16
2023-05-06T06:39:58.059Z,77.07
2023-05-06T06:42:26.203Z,77.13
2023-05-06T06:44:56.723Z,77.65
2023-05-06T06:47:24.258Z,76.90
2023-05-06T06:49:51.721Z,76.66
2023-05-06T06:52:19.194Z,75.38
2023-05-06T06:54:46.807Z,75.91
2023-05-06T06:57:14.239Z,74.74
2023-05-06T06:59:41.728Z,75.09
2023-05-06T07:02:09.140Z,74.06
2023-05-06T07:04:36.773Z,74.52
2023-05-06T07:07:04.290Z,75.14
2023-05-06T07:09:32.502Z,75.68
2023-05-06T07:12:01.923Z,73.77
2023-05-06T07:14:29.470Z,73.73
2023-05-06T07:16:57.070Z,73.55
2023-05-06T07:19:24.579Z,72.87
2023-05-06T07:21:52.009Z,72.93
2023-05-06T07:24:19.505Z,72.80
2023-05-06T07:26:47.937Z,73.12
2023-05-06T07:29:16.213Z,71.81
2023-05-06T07:31:44.630Z,72.55
2023-05-06T07:34:12.098Z,71.51
2023-05-06T07:36:43.624Z,72.32
2023-05-06T07:39:12.642Z,71.05
2023-05-06T07:41:40.523Z,70.85
2023-05-06T07:44:08.128Z,70.93
2023-05-06T07:46:36.091Z,71.61
2023-05-06T07:49:03.948Z,71.38
2023-05-06T07:51:32.050Z,71.91
2023-05-06T07:53:59.718Z,70.66
2023-05-06T07:56:27.260Z,69.82
2023-05-06T07:58:54.871Z,70.45
2023-05-06T08:01:22.675Z,68.91
2023-05-06T08:03:50.230Z,69.89
2023-05-06T08:06:17.828Z,70.13
2023-05-06T08:08:46.682Z,70.09
2023-05-06T08:11:14.506Z,68.36
2023-05-06T08:13:42.205Z,68.02
2023-05-06T08:16:10.099Z,68.88
2023-05-06T08:18:37.541Z,68.45
2023-05-06T08:21:05.849Z,67.62
2023-05-06T08:23:33.369Z,67.64
2023-05-06T08:26:02.035Z,67.04
2023-05-06T08:28:29.659Z,68.26
2023-05-06T08:30:57.185Z,67.69
2023-05-06T08:33:24.667Z,66.97
2023-05-06T08:36:02.393Z,66.93
2023-05-06T08:38:30.251Z,66.52
2023-05-06T08:41:07.871Z,65.66
2023-05-06T08:43:46.224Z,66.68
2023-05-06T08:46:15.305Z,66.80
2023-05-06T08:48:43.347Z,64.82
2023-05-06T08:51:18.101Z,65.25
2023-05-06T08:53:49.523Z,63.38
2023-05-06T08:56:18.077Z,63.59
2023-05-06T08:58:47.676Z,63.31
2023-05-06T09:01:16.102Z,63.46
2023-05-06T09:03:44.306Z,64.39
2023-05-06T09:06:11.874Z,64.24
2023-05-06T09:08:39.473Z,64.42
2023-05-06T09:11:30.088Z,62.53
2023-05-06T09:14:26.960Z,63.76
2023-05-06T09:16:54.677Z,62.24
2023-05-06T09:19:23.683Z,63.33
2023-05-06T09:21:52.154Z,62.41
2023-05-06T09:24:20.318Z,62.46
2023-05-06T09:26:48.306Z,62.57
2023-05-06T09:29:15.774Z,62.73
2023-05-06T09:31:46.590Z,60.73
2023-05-06T09:34:17.510Z,60.93
2023-05-06T09:36:45.485Z,62.85
2023-05-06T09:39:12.977Z,61.87
2023-05-06T09:41:40.468Z,60.72
2023-05-06T09:44:07.965Z,61.04
2023-05-06T09:46:36.243Z,60.09
2023-05-06T09:49:03.958Z,61.32
2023-05-06T09:51:31.364Z,60.89
2023-05-06T09:53:59.287Z,61.12
2023-05-06T09:56:27.030Z,60.05
2023-05-06T09:58:56.026Z,60.23
2023-05-06T10:01:36.004Z,59.70
2023-05-06T10:04:11.095Z,61.34
2023-05-06T10:06:41.427Z,59.92
2023-05-06T10:09:10.613Z,60.26
2023-05-06T10:11:38.751Z,59.38
2023-05-06T10:14:06.899Z,60.41
2023-05-06T10:16:36.666Z,60.15
2023-05-06T10:19:06.672Z,59.56
2023-05-06T10:21:42.862Z,59.41
2023-05-06T10:24:13.583Z,58.50
2023-05-06T10:26:42.539Z,58.47
2023-05-06T10:29:11.476Z,58.38
2023-05-06T10:31:57.266Z,57.81
2023-05-06T10:34:28.812Z,56.54
2023-05-06T10:36:58.689Z,57.77
2023-05-06T10:39:27.244Z,56.52
2023-05-06T10:41:54.796Z,55.52
2023-05-06T10:45:05.258Z,55.71
2023-05-06T10:47:57.511Z,55.42
2023-05-06T10:50:27.255Z,56.62
2023-05-06T10:52:59.327Z,55.92
2023-05-06T10:55:38.032Z,53.67
2023-05-06T10:58:11.557Z,55.83
2023-05-06T11:00:39.285Z,54.18
2023-05-06T11:03:14.158Z,54.73
2023-05-06T11:05:51.756Z,53.68
2023-05-06T11:08:26.822Z,53.45
2023-05-06T11:10:55.019Z,53.62
2023-05-06T11:13:30.104Z,52.06
2023-05-06T11:15:58.813Z,53.14
2023-05-06T11:18:29.570Z,49.74
2023-05-06T11:21:03.723Z,48.83
2023-05-06T11:23:52.409Z,49.21
2023-05-06T11:26:20.546Z,48.89
2023-05-06T11:28:51.303Z,48.86
2023-05-06T11:31:19.276Z,48.95
2023-05-06T11:33:52.778Z,48.57
2023-05-06T11:36:21.919Z,48.79
2023-05-06T11:38:53.385Z,47.31
2023-05-06T11:41:23.555Z,48.50
2023-05-06T11:43:53.619Z,47.10
2023-05-06T11:46:24.020Z,47.87
2023-05-06T11:48:51.871Z,47.16
2023-05-06T11:51:26.690Z,45.86
2023-05-06T11:54:10.454Z,46.95
2023-05-06T11:56:54.018Z,47.73
2023-05-06T11:59:34.496Z,43.49
2023-05-06T12:02:12.783Z,44.44
2023-05-06T12:04:50.256Z,44.45
2023-05-06T12:07:18.108Z,43.43
2023-05-06T12:09:51.137Z,41.78
2023-05-06T12:12:23.988Z,41.21
2023-05-06T12:14:54.105Z,43.89
2023-05-06T12:17:21.965Z,43.04
2023-05-06T12:19:50.172Z,42.90
2023-05-06T12:22:27.575Z,40.84
2023-05-06T12:24:55.146Z,40.73
2023-05-06T12:27:35.746Z,40.55
2023-05-06T12:30:04.915Z,40.87
2023-05-06T12:32:33.154Z,39.19
2023-05-06T12:35:05.924Z,40.23
2023-05-06T12:37:33.618Z,37.90
2023-05-06T12:40:01.397Z,38.24
2023-05-06T12:42:29.153Z,36.11
2023-05-06T12:44:56.617Z,37.48
2023-05-06T12:47:26.436Z,36.40
2023-05-06T12:49:59.371Z,36.98
2023-05-06T12:52:30.760Z,36.67
2023-05-06T12:55:00.871Z,36.96
2023-05-06T12:57:28.339Z,36.91
2023-05-06T12:59:56.487Z,36.56
2023-05-06T13:02:24.536Z,38.50
2023-05-06T13:04:52.108Z,37.28
2023-05-06T13:07:19.567Z,35.69
2023-05-06T13:09:47.044Z,35.35
2023-05-06T13:12:14.480Z,34.92
2023-05-06T13:14:41.943Z,34.77
2023-05-06T13:17:09.785Z,33.63
2023-05-06T13:19:37.555Z,34.91
2023-05-06T13:22:05.121Z,34.26
2023-05-06T13:24:32.615Z,33.12
2023-05-06T13:27:01.411Z,34.12
2023-05-06T13:29:29.942Z,33.99
2023-05-06T13:31:57.847Z,34.35
2023-05-06T13:34:26.092Z,34.79
2023-05-06T13:36:57.379Z,35.47
2023-05-06T13:39:25.668Z,32.93
2023-05-06T13:41:54.221Z,34.01
2023-05-06T13:44:22.194Z,35.55
2023-05-06T13:46:49.792Z,34.09
2023-05-06T13:49:18.723Z,36.21
2023-05-06T13:51:46.290Z,35.97
2023-05-06T13:54:13.944Z,33.90
2023-05-06T13:56:41.466Z,34.67
2023-05-06T13:59:10.386Z,31.86
2023-05-06T14:01:38.970Z,35.06
2023-05-06T14:04:06.558Z,33.32
2023-05-06T14:06:34.168Z,33.87
2023-05-06T14:09:02.107Z,33.26
2023-05-06T14:11:29.562Z,34.56
2023-05-06T14:13:57.527Z,33.29
2023-05-06T14:16:25.031Z,33.18
2023-05-06T14:18:52.680Z,36.34
2023-05-06T14:21:20.158Z,35.85
2023-05-06T14:23:47.660Z,33.70
2023-05-06T14:26:15.175Z,34.40
2023-05-06T14:28:42.595Z,33.72
2023-05-06T14:31:10.312Z,33.60
2023-05-06T14:33:38.998Z,33.79
2023-05-06T14:36:07.065Z,32.25
2023-05-06T14:38:34.556Z,33.12
2023-05-06T14:41:02.109Z,33.30
2023-05-06T14:43:29.588Z,34.66
2023-05-06T14:45:57.128Z,32.06
2023-05-06T14:48:25.562Z,33.41
2023-05-06T14:50:53.215Z,33.31
2023-05-06T14:53:20.724Z,33.28
2023-05-06T14:55:49.053Z,32.57
2023-05-06T14:58:16.726Z,33.29
2023-05-06T15:00:45.096Z,33.89
2023-05-06T15:03:12.544Z,34.97
2023-05-06T15:05:40.029Z,35.18
2023-05-06T15:08:07.590Z,34.04
2023-05-06T15:10:35.166Z,34.17
2023-05-06T15:13:02.763Z,36.09
2023-05-06T15:15:30.631Z,35.35
2023-05-06T15:17:58.139Z,33.83
2023-05-06T15:20:26.278Z,34.67
2023-05-06T15:22:53.762Z,34.67
2023-05-06T15:25:34.208Z,34.50
2023-05-06T15:28:03.031Z,34.34
2023-05-06T15:30:30.586Z,34.61
2023-05-06T15:32:58.198Z,34.83
2023-05-06T15:35:25.877Z,34.74
2023-05-06T15:37:59.294Z,34.90
2023-05-06T15:40:27.353Z,37.03
2023-05-06T15:42:55.274Z,35.69
2023-05-06T15:45:22.975Z,35.43
2023-05-06T15:47:50.533Z,34.82
2023-05-06T15:50:32.464Z,36.81
2023-05-06T15:53:02.332Z,34.86
2023-05-06T15:55:35.244Z,36.25
2023-05-06T15:58:11.193Z,34.95
2023-05-06T16:00:38.563Z,35.94
2023-05-06T16:03:08.045Z,34.89
2023-05-06T16:05:37.491Z,35.53
2023-05-06T16:08:05.113Z,35.77
2023-05-06T16:10:32.681Z,36.03
2023-05-06T16:13:00.275Z,37.51
2023-05-06T16:15:27.808Z,36.14
2023-05-06T16:17:56.697Z,36.78
2023-05-06T16:20:24.316Z,37.29
2023-05-06T16:22:52.786Z,36.53
2023-05-06T16:25:20.608Z,36.14
2023-05-06T16:27:48.823Z,36.63
2023-05-06T16:30:16.797Z,37.56
2023-05-06T16:32:44.753Z,36.99
2023-05-06T16:35:12.968Z,37.42
2023-05-06T16:37:40.559Z,38.62
2023-05-06T16:40:09.842Z,37.56
2023-05-06T16:42:37.433Z,37.66
2023-05-06T16:45:07.809Z,38.14
2023-05-06T16:47:35.543Z,36.90
2023-05-06T16:50:04.029Z,37.40
2023-05-06T16:52:31.446Z,37.08
2023-05-06T16:54:59.212Z,37.56
2023-05-06T16:57:26.787Z,37.08
2023-05-06T16:59:54.424Z,37.14
2023-05-06T17:02:21.912Z,37.31
2023-05-06T17:04:49.461Z,36.38
2023-05-06T17:07:17.053Z,37.56
2023-05-06T17:09:44.532Z,36.98
2023-05-06T17:12:12.030Z,37.20
2023-05-06T17:14:41.543Z,37.42
2023-05-06T17:17:09.076Z,38.98
2023-05-06T17:19:36.528Z,37.76
2023-05-06T17:22:04.251Z,37.14
2023-05-06T17:24:31.690Z,38.34
2023-05-06T17:26:59.695Z,37.48
2023-05-06T17:29:27.443Z,38.09
2023-05-06T17:31:54.912Z,39.62
2023-05-06T17:37:09.946Z,40.88
2023-05-06T17:39:38.515Z,39.24
2023-05-06T17:42:05.993Z,39.81
2023-05-06T17:44:35.356Z,40.01
2023-05-06T17:47:02.970Z,38.98
2023-05-06T17:49:31.041Z,39.65
2023-05-06T17:51:59.565Z,39.57
2023-05-06T17:54:34.818Z,39.35
2023-05-06T17:57:03.788Z,40.21
2023-05-06T17:59:31.283Z,39.26
2023-05-06T18:01:58.970Z,40.25
2023-05-06T18:04:26.605Z,40.78
2023-05-06T18:06:54.126Z,40.95
2023-05-06T18:09:21.597Z,41.80
2023-05-06T18:11:49.087Z,41.26
2023-05-06T18:14:16.597Z,41.93
2023-05-06T18:16:44.130Z,41.62
2023-05-06T18:19:11.930Z,42.33
2023-05-06T18:21:39.636Z,42.79
2023-05-06T18:24:16.178Z,42.40
2023-05-06T18:26:45.776Z,42.18
2023-05-06T18:29:13.760Z,41.78
2023-05-06T18:31:41.409Z,42.10
2023-05-06T18:34:08.958Z,42.20
2023-05-06T18:36:36.622Z,43.10
2023-05-06T18:39:04.851Z,42.90
2023-05-06T18:41:32.341Z,43.16
2023-05-06T18:43:59.814Z,43.55
2023-05-06T18:46:27.668Z,43.76
2023-05-06T18:48:56.078Z,43.79
2023-05-06T18:51:23.760Z,43.98
2023-05-06T18:53:51.307Z,44.00
2023-05-06T18:56:18.994Z,43.80
2023-05-06T18:58:46.518Z,44.80
2023-05-06T19:01:13.955Z,45.86
2023-05-06T19:03:41.899Z,45.67
2023-05-06T19:06:12.644Z,45.61
2023-05-06T19:08:40.835Z,46.84
2023-05-06T19:11:16.925Z,47.76
2023-05-06T19:13:46.387Z,47.94
2023-05-06T19:16:14.192Z,48.49
2023-05-06T19:18:41.834Z,48.60
2023-05-06T19:21:13.010Z,49.07
2023-05-06T19:23:40.893Z,49.35
2023-05-06T19:26:12.142Z,49.20
2023-05-06T19:28:42.780Z,50.14
2023-05-06T19:31:11.774Z,50.91
2023-05-06T19:33:41.018Z,48.91
2023-05-06T19:36:09.338Z,49.32
2023-05-06T19:38:38.097Z,49.15
2023-05-06T19:41:06.233Z,49.73
2023-05-06T19:43:33.715Z,50.08
2023-05-06T19:46:01.233Z,50.00
2023-05-06T19:48:28.807Z,50.53
2023-05-06T19:50:56.561Z,50.82
2023-05-06T19:53:24.189Z,49.89
2023-05-06T19:55:56.053Z,50.38
2023-05-06T19:58:23.506Z,50.40
2023-05-06T20:00:50.900Z,50.07
2023-05-06T20:03:18.596Z,49.77
2023-05-06T20:05:46.178Z,49.22
2023-05-06T20:08:13.878Z,49.54
2023-05-06T20:10:41.390Z,50.28
2023-05-06T20:13:08.929Z,50.54
2023-05-06T20:15:36.602Z,50.66
2023-05-06T20:18:04.260Z,51.21
2023-05-06T20:20:34.691Z,51.65
2023-05-06T20:23:03.364Z,51.18
2023-05-06T20:25:31.250Z,51.26
2023-05-06T20:27:59.781Z,51.46
2023-05-06T20:30:27.389Z,51.36
2023-05-06T20:32:54.907Z,51.33
2023-05-06T20:35:22.499Z,52.19
2023-05-06T20:37:50.387Z,51.99
2023-05-06T20:40:17.982Z,52.72
2023-05-06T20:42:45.468Z,53.30
2023-05-06T20:45:13.313Z,54.36
2023-05-06T20:47:40.931Z,54.80
2023-05-06T20:50:09.404Z,55.85
2023-05-06T20:52:37.398Z,56.35
2023-05-06T20:55:07.253Z,56.17
2023-05-06T20:57:34.714Z,56.69
2023-05-06T21:00:02.749Z,56.42
2023-05-06T21:02:32.998Z,56.28
2023-05-06T21:05:01.851Z,56.97
2023-05-06T21:07:29.499Z,56.48
2023-05-06T21:09:56.966Z,56.64
2023-05-06T21:12:24.465Z,56.72
2023-05-06T21:14:51.973Z,57.32
2023-05-06T21:17:19.446Z,56.78
2023-05-06T21:19:52.537Z,57.67
2023-05-06T21:22:24.367Z,57.82
2023-05-06T21:24:52.191Z,58.40
2023-05-06T21:27:19.677Z,57.95
2023-05-06T21:29:47.144Z,57.32
2023-05-06T21:32:14.832Z,57.29
2023-05-06T21:34:42.359Z,56.96
2023-05-06T21:37:09.824Z,57.23
2023-05-06T21:39:37.355Z,57.52
2023-05-06T21:42:04.972Z,57.25
2023-05-06T21:44:32.439Z,57.32
2023-05-06T21:46:59.883Z,57.90
2023-05-06T21:49:27.356Z,57.71
2023-05-06T21:51:54.776Z,57.63
2023-05-06T21:54:24.259Z,58.06
2023-05-06T21:56:51.792Z,57.48
2023-05-06T21:59:19.893Z,57.40
2023-05-06T22:01:48.253Z,57.48
2023-05-06T22:04:16.926Z,58.38
2023-05-06T22:06:44.481Z,58.27
2023-05-06T22:09:12.057Z,58.35
2023-05-06T22:11:39.506Z,57.34
2023-05-06T22:14:07.105Z,57.66
2023-05-06T22:16:38.095Z,57.39
2023-05-06T22:19:06.701Z,58.71
2023-05-06T22:21:35.355Z,58.69
2023-05-06T22:24:03.019Z,59.08
2023-05-06T22:26:30.547Z,59.06
2023-05-06T22:28:58.064Z,59.35
2023-05-06T22:31:26.583Z,59.77
2023-05-06T22:33:58.024Z,60.26
2023-05-06T22:36:29.648Z,60.60
2023-05-06T22:38:57.186Z,59.90
2023-05-06T22:41:24.699Z,60.23
2023-05-06T22:43:52.398Z,60.44
2023-05-06T22:46:19.989Z,59.61
2023-05-06T22:48:47.425Z,59.93
2023-05-06T22:51:16.125Z,59.80
2023-05-06T22:53:43.675Z,60.47
2023-05-06T22:56:11.359Z,60.18
2023-05-06T22:58:38.912Z,61.38
2023-05-06T23:01:07.503Z,61.02
2023-05-06T23:03:36.114Z,61.32
2023-05-06T23:06:06.192Z,62.21
2023-05-06T23:08:33.832Z,62.15
2023-05-06T23:11:01.337Z,62.49
2023-05-06T23:13:28.917Z,61.91
2023-05-06T23:15:56.464Z,61.01
2023-05-06T23:18:23.988Z,60.80
2023-05-06T23:20:51.527Z,61.26
2023-05-06T23:23:19.045Z,62.57
2023-05-06T23:25:46.443Z,62.41
2023-05-06T23:28:13.901Z,62.02
2023-05-06T23:30:41.424Z,63.61
2023-05-06T23:33:09.018Z,62.27
2023-05-06T23:35:36.612Z,61.03
2023-05-06T23:38:04.081Z,60.58
2023-05-06T23:40:31.576Z,60.83
2023-05-06T23:42:59.082Z,62.05
2023-05-06T23:45:27.061Z,62.57
2023-05-06T23:47:54.948Z,62.92
2023-05-06T23:50:22.396Z,64.59
2023-05-06T23:52:49.954Z,63.37
2023-05-06T23:55:17.519Z,63.47
2023-05-06T23:57:45.953Z,63.45
